Time;durP1;ratioP1;P1;durP2;ratioP2;P2;SDS_P1;SDS_P2;PMS_P1;PMS_P2;Temp;Humidity;BMP_temperature;BMP_pressure;BME280_temperature;BME280_humidity;BME280_pressure;Samples;Min_cycle;Max_cycle;Signal;HPM_P1;HPM_P2
2022/10/21 00:02:00;;;;;;;27.85;17.58;;;;;;;13.69;100.00;100720.47;5027874;28;20124;-84
2022/10/21 00:04:25;;;;;;;26.63;16.90;;;;;;;13.66;100.00;100709.34;5012542;28;20470;-83
2022/10/21 00:06:50;;;;;;;20.02;16.42;;;;;;;13.65;100.00;100713.78;5013084;28;20087;-85
2022/10/21 00:09:16;;;;;;;26.70;17.50;;;;;;;13.64;100.00;100704.19;5019220;28;20049;-83
2022/10/21 00:11:41;;;;;;;22.83;17.23;;;;;;;13.60;100.00;100705.41;5009380;28;20039;-84
2022/10/21 00:14:06;;;;;;;20.70;16.77;;;;;;;13.60;100.00;100710.69;5010035;28;20030;-83
2022/10/21 00:16:32;;;;;;;24.63;17.27;;;;;;;13.58;100.00;100707.34;4992201;28;20053;-82
2022/10/21 00:18:57;;;;;;;24.10;17.05;;;;;;;13.57;100.00;100710.13;5013497;28;20493;-84
2022/10/21 00:21:22;;;;;;;21.08;17.23;;;;;;;13.54;100.00;100699.84;5011075;28;20026;-84
2022/10/21 00:23:49;;;;;;;25.25;17.67;;;;;;;13.55;100.00;100697.06;5010565;28;20057;-84
2022/10/21 00:26:15;;;;;;;23.73;18.00;;;;;;;13.56;100.00;100692.59;5010768;28;20394;-84
2022/10/21 00:28:41;;;;;;;23.42;17.65;;;;;;;13.59;100.00;100693.16;5018791;28;20131;-82
2022/10/21 00:31:08;;;;;;;25.92;17.75;;;;;;;13.59;100.00;100694.97;5011488;28;20477;-83
2022/10/21 00:33:34;;;;;;;25.58;18.70;;;;;;;13.58;100.00;100688.84;5030389;28;20037;-84
2022/10/21 00:36:03;;;;;;;26.05;19.60;;;;;;;13.59;100.00;100687.03;5017313;28;20103;-83
2022/10/21 00:38:30;;;;;;;29.42;19.50;;;;;;;13.56;100.00;100684.66;5012293;28;20048;-83
2022/10/21 00:40:56;;;;;;;23.50;18.05;;;;;;;13.58;100.00;100691.50;5003898;28;20363;-83
2022/10/21 00:43:22;;;;;;;25.65;19.17;;;;;;;13.56;100.00;100693.44;4991853;28;20415;-82
2022/10/21 00:45:53;;;;;;;26.10;18.95;;;;;;;13.54;100.00;100687.44;4993050;28;20073;-82
2022/10/21 00:48:29;;;;;;;24.88;18.55;;;;;;;13.57;100.00;100696.91;5008484;28;20026;-82
2022/10/21 00:51:07;;;;;;;24.63;18.27;;;;;;;13.60;100.00;100694.81;4992397;28;20022;-82
2022/10/21 00:53:35;;;;;;;28.17;19.23;;;;;;;13.63;100.00;100694.59;4992212;28;20057;-83
2022/10/21 00:56:06;;;;;;;29.42;18.80;;;;;;;13.63;100.00;100685.81;4992493;28;20121;-83
2022/10/21 00:58:32;;;;;;;24.95;18.67;;;;;;;13.65;100.00;100678.59;5009241;28;20105;-83
2022/10/21 01:01:00;;;;;;;25.80;19.38;;;;;;;13.64;100.00;100679.56;4992301;28;20021;-83
2022/10/21 01:03:27;;;;;;;23.10;18.17;;;;;;;13.63;100.00;100672.59;4992004;28;20532;-83
2022/10/21 01:05:56;;;;;;;28.13;18.40;;;;;;;13.61;100.00;100667.44;5026683;28;20501;-83
2022/10/21 01:08:22;;;;;;;27.33;18.95;;;;;;;13.61;100.00;100656.00;5029223;28;20040;-83
2022/10/21 01:10:47;;;;;;;24.08;18.52;;;;;;;13.59;100.00;100650.84;5011145;28;20402;-83
2022/10/21 01:13:18;;;;;;;25.15;18.77;;;;;;;13.59;100.00;100663.25;5027469;28;20021;-83
2022/10/21 01:15:57;;;;;;;24.38;18.25;;;;;;;13.58;100.00;100658.94;5011989;28;20046;-83
2022/10/21 01:18:41;;;;;;;25.13;18.25;;;;;;;13.55;100.00;100660.03;5009248;28;20036;-83
2022/10/21 01:21:10;;;;;;;30.30;18.52;;;;;;;13.55;100.00;100654.75;5028981;28;20034;-84
2022/10/21 01:23:56;;;;;;;25.27;18.38;;;;;;;13.54;100.00;100642.50;5011034;28;20111;-84
2022/10/21 01:26:32;;;;;;;20.77;17.25;;;;;;;13.53;100.00;100646.13;5009990;28;20021;-84
2022/10/21 01:29:19;;;;;;;23.95;17.20;;;;;;;13.52;100.00;100636.53;5011410;28;20079;-84
2022/10/21 01:32:01;;;;;;;24.95;17.67;;;;;;;13.51;100.00;100639.31;5011107;28;20120;-83
2022/10/21 01:34:56;;;;;;;22.08;17.30;;;;;;;13.50;100.00;100633.19;5010416;28;20029;-83
2022/10/21 01:37:40;;;;;;;26.33;17.70;;;;;;;13.47;100.00;100626.38;4992336;28;20045;-83
2022/10/21 01:40:16;;;;;;;22.58;16.85;;;;;;;13.45;100.00;100622.19;4990881;28;20044;-81
2022/10/21 01:42:48;;;;;;;26.58;17.02;;;;;;;13.41;100.00;100618.16;5009681;28;20033;-82
2022/10/21 01:45:21;;;;;;;20.15;16.52;;;;;;;13.41;100.00;100620.81;4992105;28;20029;-83
2022/10/21 01:47:51;;;;;;;22.75;17.48;;;;;;;13.40;100.00;100613.84;5009440;28;20096;-83
2022/10/21 01:50:27;;;;;;;25.58;17.10;;;;;;;13.36;100.00;100612.47;4992380;28;20018;-81
2022/10/21 01:52:58;;;;;;;26.70;16.30;;;;;;;13.36;100.00;100612.47;5014484;28;20030;-81
2022/10/21 01:55:28;;;;;;;25.02;16.00;;;;;;;13.32;100.00;100608.41;5009693;28;20022;-83
2022/10/21 01:58:01;;;;;;;28.65;16.33;;;;;;;13.31;100.00;100609.38;5011210;28;20032;-83
2022/10/21 02:00:28;;;;;;;19.20;16.25;;;;;;;13.30;100.00;100600.63;5008987;28;20010;-84
2022/10/21 02:02:54;;;;;;;21.33;15.80;;;;;;;13.27;100.00;100594.78;5008646;28;20025;-83
2022/10/21 02:05:25;;;;;;;23.20;16.70;;;;;;;13.30;100.00;100602.44;4998383;28;20040;-82
2022/10/21 02:07:50;;;;;;;22.27;16.30;;;;;;;13.26;100.00;100601.03;4994315;28;20370;-85
2022/10/21 02:10:17;;;;;;;22.60;16.30;;;;;;;13.25;100.00;100600.22;5007982;28;20083;-84
2022/10/21 02:12:46;;;;;;;22.67;16.38;;;;;;;13.23;100.00;100588.94;5029218;28;20025;-85
2022/10/21 02:15:14;;;;;;;22.30;15.80;;;;;;;13.20;100.00;100581.25;5027361;28;20053;-83
2022/10/21 02:17:44;;;;;;;21.40;16.20;;;;;;;13.18;100.00;100578.75;5029320;28;20122;-85
2022/10/21 02:20:13;;;;;;;26.08;16.02;;;;;;;13.18;100.00;100572.63;5010651;28;20032;-84
2022/10/21 02:22:40;;;;;;;21.98;15.40;;;;;;;13.18;100.00;100573.47;4993404;28;20060;-84
2022/10/21 02:25:16;;;;;;;21.40;15.70;;;;;;;13.18;100.00;100570.81;4992958;28;20022;-85
2022/10/21 02:27:41;;;;;;;24.85;15.50;;;;;;;13.13;100.00;100564.25;5024156;28;20038;-85
2022/10/21 02:30:07;;;;;;;20.73;15.00;;;;;;;13.14;100.00;100577.31;5026266;28;20032;-84
2022/10/21 02:32:35;;;;;;;21.23;15.10;;;;;;;13.12;100.00;100579.28;5031825;28;20033;-83
2022/10/21 02:35:20;;;;;;;23.58;16.25;;;;;;;13.14;100.00;100587.91;5014616;28;20508;-82
2022/10/21 02:38:05;;;;;;;20.23;14.73;;;;;;;13.11;100.00;100580.25;5014447;28;20108;-83
2022/10/21 02:40:43;;;;;;;20.90;15.38;;;;;;;13.07;100.00;100584.13;5014856;28;20572;-82
2022/10/21 02:43:14;;;;;;;18.60;14.65;;;;;;;13.10;100.00;100580.38;5031955;28;20028;-83
2022/10/21 02:45:40;;;;;;;20.08;14.00;;;;;;;13.07;100.00;100578.84;5033302;28;20022;-83
2022/10/21 02:48:05;;;;;;;21.70;14.90;;;;;;;13.06;100.00;100581.63;5033233;28;20100;-84
2022/10/21 02:50:31;;;;;;;20.98;14.35;;;;;;;13.04;100.00;100570.38;5032034;28;20025;-84
2022/10/21 02:52:56;;;;;;;21.05;13.90;;;;;;;13.03;100.00;100560.78;5013735;28;20060;-82
2022/10/21 02:55:22;;;;;;;20.80;14.07;;;;;;;13.04;100.00;100558.00;5015318;28;20032;-84
2022/10/21 02:57:47;;;;;;;20.55;13.35;;;;;;;13.02;100.00;100561.75;5032447;28;20025;-84
2022/10/21 03:00:13;;;;;;;19.52;13.70;;;;;;;13.01;100.00;100566.19;5032252;28;20033;-84
2022/10/21 03:02:40;;;;;;;20.75;14.68;;;;;;;13.01;100.00;100565.34;5032654;28;20025;-84
2022/10/21 03:05:07;;;;;;;19.92;13.93;;;;;;;13.00;100.00;100556.59;5002698;28;20509;-84
2022/10/21 03:07:33;;;;;;;19.05;13.02;;;;;;;12.99;100.00;100567.31;4995259;28;20037;-83
2022/10/21 03:09:59;;;;;;;20.02;12.70;;;;;;;12.98;100.00;100561.19;5012744;28;20056;-84
2022/10/21 03:12:24;;;;;;;14.80;12.13;;;;;;;12.98;100.00;100563.81;5020200;28;20020;-84
2022/10/21 03:14:49;;;;;;;23.10;13.27;;;;;;;13.00;100.00;100563.69;5019158;28;20032;-83
2022/10/21 03:17:14;;;;;;;19.20;12.38;;;;;;;12.97;100.00;100556.88;5031559;28;20466;-84
2022/10/21 03:19:40;;;;;;;15.70;11.85;;;;;;;12.93;100.00;100558.13;5023039;28;20452;-84
2022/10/21 03:22:05;;;;;;;20.30;12.90;;;;;;;12.93;100.00;100560.75;5008841;28;20051;-84
2022/10/21 03:24:30;;;;;;;16.42;12.00;;;;;;;12.92;100.00;100572.28;4994711;28;20117;-82
2022/10/21 03:26:56;;;;;;;16.92;11.88;;;;;;;12.91;100.00;100570.63;5015524;28;20026;-82
2022/10/21 03:29:21;;;;;;;18.92;11.77;;;;;;;12.89;100.00;100569.94;5020468;28;20040;-82
2022/10/21 03:31:47;;;;;;;16.92;12.45;;;;;;;12.87;100.00;100569.22;5013422;28;20021;-82
2022/10/21 03:34:12;;;;;;;16.42;12.13;;;;;;;12.83;100.00;100567.84;5012906;28;20076;-82
2022/10/21 03:36:37;;;;;;;19.58;11.35;;;;;;;12.82;100.00;100569.63;5030907;28;20478;-81
2022/10/21 03:39:03;;;;;;;16.88;12.25;;;;;;;12.81;100.00;100560.03;5031034;28;20030;-82
2022/10/21 03:41:28;;;;;;;18.50;11.02;;;;;;;12.79;100.00;100550.56;5013168;28;20421;-81
2022/10/21 03:43:53;;;;;;;19.33;11.25;;;;;;;12.76;100.00;100556.09;5012320;28;20394;-82
2022/10/21 03:46:19;;;;;;;15.40;11.18;;;;;;;12.74;100.00;100552.78;5012712;28;20037;-83
2022/10/21 03:48:44;;;;;;;19.48;10.40;;;;;;;12.72;100.00;100555.53;5031733;28;20025;-84
2022/10/21 03:51:09;;;;;;;13.00;10.73;;;;;;;12.70;100.00;100551.38;5013844;28;20029;-81
2022/10/21 03:53:35;;;;;;;16.40;10.50;;;;;;;12.70;100.00;100546.09;5000458;28;20121;-83
2022/10/21 03:56:00;;;;;;;17.30;11.02;;;;;;;12.69;100.00;100550.53;5010741;28;20512;-83
2022/10/21 03:58:27;;;;;;;13.95;10.70;;;;;;;12.67;100.00;100549.00;4996821;28;20423;-83
2022/10/21 04:00:53;;;;;;;15.27;10.50;;;;;;;12.65;100.00;100543.03;5012030;28;20155;-83
2022/10/21 04:03:18;;;;;;;16.95;10.45;;;;;;;12.65;100.00;100545.66;4994597;28;20026;-83
2022/10/21 04:05:43;;;;;;;15.10;10.23;;;;;;;12.64;100.00;100549.28;5028042;28;20035;-83
2022/10/21 04:08:09;;;;;;;13.48;9.70;;;;;;;12.61;100.00;100550.38;5012682;28;20053;-83
2022/10/21 04:10:34;;;;;;;11.90;9.82;;;;;;;12.59;100.00;100560.22;5012726;28;20120;-83
2022/10/21 04:13:00;;;;;;;18.35;10.60;;;;;;;12.61;100.00;100557.47;5013866;28;20086;-81
2022/10/21 04:15:25;;;;;;;12.75;9.80;;;;;;;12.53;100.00;100551.06;5027475;28;20366;-83
2022/10/21 04:17:51;;;;;;;14.38;9.65;;;;;;;12.55;100.00;100556.19;5011897;28;20030;-82
2022/10/21 04:20:16;;;;;;;12.38;9.77;;;;;;;12.53;100.00;100555.50;5011556;28;20032;-81
2022/10/21 04:22:42;;;;;;;11.23;8.82;;;;;;;12.51;100.00;100547.72;5012485;28;20030;-84
2022/10/21 04:25:07;;;;;;;12.90;9.10;;;;;;;12.49;100.00;100547.00;5013737;28;20065;-84
2022/10/21 04:27:33;;;;;;;18.33;9.00;;;;;;;12.48;100.00;100545.34;5030746;28;20049;-83
2022/10/21 04:29:58;;;;;;;13.88;8.93;;;;;;;12.46;100.00;100552.56;5012111;28;20036;-84
2022/10/21 04:32:23;;;;;;;14.32;8.70;;;;;;;12.44;100.00;100551.84;5011064;28;20016;-84
2022/10/21 04:34:49;;;;;;;16.00;8.38;;;;;;;12.42;100.00;100559.06;5019494;28;20025;-84
2022/10/21 04:37:14;;;;;;;11.00;8.40;;;;;;;12.40;100.00;100557.50;5029468;28;20485;-84
2022/10/21 04:39:39;;;;;;;11.38;8.68;;;;;;;12.39;100.00;100558.47;4999328;28;20033;-84
2022/10/21 04:42:05;;;;;;;13.07;8.27;;;;;;;12.37;100.00;100561.25;5010156;28;20030;-81
2022/10/21 04:44:30;;;;;;;10.30;7.43;;;;;;;12.36;100.00;100559.56;4992663;28;20034;-81
2022/10/21 04:46:56;;;;;;;17.05;7.75;;;;;;;12.35;100.00;100562.34;5010802;28;20470;-83
2022/10/21 04:49:21;;;;;;;12.13;8.00;;;;;;;12.32;100.00;100560.81;5022228;28;20119;-83
2022/10/21 04:51:46;;;;;;;11.85;7.68;;;;;;;12.30;100.00;100559.25;5023588;28;20022;-83
2022/10/21 04:54:12;;;;;;;14.38;7.22;;;;;;;12.28;100.00;100559.41;5002822;28;20037;-83
2022/10/21 04:56:39;;;;;;;13.85;7.97;;;;;;;12.24;100.00;100550.91;4992472;28;20113;-83
2022/10/21 04:59:05;;;;;;;11.68;7.20;;;;;;;12.25;100.00;100551.75;5010596;28;20026;-83
2022/10/21 05:01:30;;;;;;;14.30;7.72;;;;;;;12.22;100.00;100552.00;4995419;28;20410;-83
2022/10/21 05:03:59;;;;;;;9.20;6.78;;;;;;;12.20;100.00;100544.22;5010307;28;20120;-83
2022/10/21 05:06:24;;;;;;;14.55;7.28;;;;;;;12.21;100.00;100545.06;5010698;28;20030;-83
2022/10/21 05:08:49;;;;;;;14.18;6.55;;;;;;;12.22;100.00;100549.38;4993128;28;20029;-83
2022/10/21 05:11:15;;;;;;;11.15;5.95;;;;;;;12.20;100.00;100549.50;5010411;28;20033;-84
2022/10/21 05:13:40;;;;;;;8.60;6.55;;;;;;;12.20;100.00;100548.66;5010436;28;20030;-84
2022/10/21 05:16:06;;;;;;;11.88;6.30;;;;;;;12.20;100.00;100551.31;4992911;28;20049;-84
2022/10/21 05:18:31;;;;;;;12.10;6.82;;;;;;;12.20;100.00;100549.50;5014879;28;20037;-84
2022/10/21 05:20:57;;;;;;;8.85;5.95;;;;;;;12.20;100.00;100551.31;5030232;28;20104;-83
2022/10/21 05:23:24;;;;;;;11.77;6.03;;;;;;;12.21;100.00;100545.06;5012462;28;20489;-84
2022/10/21 05:25:50;;;;;;;11.32;6.72;;;;;;;12.19;100.00;100541.72;5012061;28;20029;-84
2022/10/21 05:28:17;;;;;;;14.55;6.13;;;;;;;12.19;100.00;100537.28;5029434;28;20035;-84
2022/10/21 05:30:42;;;;;;;8.93;5.60;;;;;;;12.20;100.00;100543.41;5029207;28;20397;-83
2022/10/21 05:33:07;;;;;;;11.40;6.28;;;;;;;12.19;100.00;100536.44;5028075;28;20029;-85
2022/10/21 05:35:33;;;;;;;7.90;5.60;;;;;;;12.18;100.00;100534.78;5029358;28;20025;-83
2022/10/21 05:37:58;;;;;;;9.75;5.97;;;;;;;12.17;100.00;100522.56;5011693;28;20024;-81
2022/10/21 05:40:24;;;;;;;10.30;6.05;;;;;;;12.15;100.00;100520.06;5028515;28;20029;-84
2022/10/21 05:42:49;;;;;;;12.52;6.43;;;;;;;12.14;100.00;100517.56;5028997;28;20040;-84
2022/10/21 05:45:15;;;;;;;9.20;6.15;;;;;;;12.14;100.00;100517.56;5001744;28;20506;-84
2022/10/21 05:47:41;;;;;;;12.88;6.10;;;;;;;12.14;100.00;100512.28;4991168;28;20125;-84
2022/10/21 05:50:08;;;;;;;11.32;6.43;;;;;;;12.11;100.00;100512.53;5013342;28;20022;-84
2022/10/21 05:52:34;;;;;;;11.85;6.15;;;;;;;12.12;100.00;100508.94;5008698;28;20371;-84
2022/10/21 05:54:59;;;;;;;10.93;6.70;;;;;;;12.10;100.00;100509.06;5011518;28;20037;-84
2022/10/21 05:57:25;;;;;;;11.55;5.93;;;;;;;12.10;100.00;100509.06;5028851;28;20029;-84
2022/10/21 05:59:50;;;;;;;10.20;6.13;;;;;;;12.10;100.00;100511.72;5029880;28;20809;-84
2022/10/21 06:02:16;;;;;;;12.63;6.28;;;;;;;12.10;100.00;100511.72;5014548;28;20044;-84
2022/10/21 06:04:41;;;;;;;9.63;6.55;;;;;;;12.10;100.00;100518.78;5025542;28;20132;-84
2022/10/21 06:07:07;;;;;;;13.32;5.80;;;;;;;12.11;100.00;100517.81;5013449;28;20478;-84
2022/10/21 06:09:32;;;;;;;9.55;5.68;;;;;;;12.12;100.00;100517.69;5011020;28;20029;-84
2022/10/21 06:11:57;;;;;;;11.23;5.50;;;;;;;12.12;100.00;100514.22;5015055;28;20021;-84
2022/10/21 06:14:24;;;;;;;8.05;5.38;;;;;;;12.14;100.00;100512.28;5032596;28;20029;-84
2022/10/21 06:16:49;;;;;;;11.80;5.75;;;;;;;12.14;100.00;100512.28;5016178;28;20053;-81
2022/10/21 06:19:15;;;;;;;7.93;5.20;;;;;;;12.13;100.00;100513.25;5030609;28;20865;-80
2022/10/21 06:21:40;;;;;;;10.35;5.15;;;;;;;12.15;100.00;100503.41;4997625;28;20030;-80
2022/10/21 06:24:05;;;;;;;15.57;5.53;;;;;;;12.15;100.00;100503.41;4996521;28;20026;-84
2022/10/21 06:26:30;;;;;;;10.52;5.15;;;;;;;12.14;100.00;100501.72;5028580;28;20060;-84
2022/10/21 06:28:56;;;;;;;11.55;5.03;;;;;;;12.15;100.00;100509.50;5010834;28;20120;-84
2022/10/21 06:31:21;;;;;;;8.77;5.03;;;;;;;12.15;100.00;100504.22;5032955;28;20388;-84
2022/10/21 06:33:48;;;;;;;8.55;4.85;;;;;;;12.15;100.00;100503.41;5032848;28;20025;-83
2022/10/21 06:36:13;;;;;;;7.18;4.45;;;;;;;12.16;100.00;100515.63;5026774;28;20033;-84
2022/10/21 06:38:39;;;;;;;6.68;4.45;;;;;;;12.16;100.00;100515.63;4995455;28;20033;-84
2022/10/21 06:41:07;;;;;;;10.50;5.03;;;;;;;12.16;100.00;100519.09;5002929;28;20040;-84
2022/10/21 06:43:32;;;;;;;8.55;5.00;;;;;;;12.16;100.00;100519.09;5031794;28;20068;-84
2022/10/21 06:46:07;;;;;;;9.18;5.03;;;;;;;12.19;100.00;100532.00;5032643;28;20045;-84
2022/10/21 06:48:33;;;;;;;10.48;5.15;;;;;;;12.20;100.00;100535.47;5031975;28;20039;-89
2022/10/21 06:51:00;;;;;;;7.82;4.88;;;;;;;12.23;100.00;100535.22;5008419;28;20013;-86
2022/10/21 06:53:26;;;;;;;11.48;5.05;;;;;;;12.25;100.00;100538.56;5005463;28;20359;-85
2022/10/21 06:56:03;;;;;;;12.20;4.60;;;;;;;12.29;100.00;100553.16;5023246;28;20031;-86
2022/10/21 06:58:29;;;;;;;10.02;4.72;;;;;;;12.32;100.00;100546.78;5027078;28;20057;-86
2022/10/21 07:00:54;;;;;;;12.80;4.75;;;;;;;12.34;100.00;100556.22;5021393;28;20122;-85
2022/10/21 07:03:19;;;;;;;7.43;4.32;;;;;;;12.38;100.00;100556.81;5003449;28;20042;-86
2022/10/21 07:05:45;;;;;;;14.32;4.70;;;;;;;12.42;100.00;100564.34;5024617;28;20029;-85
2022/10/21 07:08:10;;;;;;;9.88;4.10;;;;;;;12.45;100.00;100571.16;5012564;28;20120;-85
2022/10/21 07:10:35;;;;;;;9.32;4.65;;;;;;;12.47;100.00;100570.06;5015956;28;20045;-84
2022/10/21 07:13:01;;;;;;;10.13;4.68;;;;;;;12.52;100.00;100573.13;5011291;28;20620;-84
2022/10/21 07:15:26;;;;;;;7.25;4.13;;;;;;;12.53;100.00;100576.59;5002256;28;20077;-84
2022/10/21 07:17:51;;;;;;;12.27;4.72;;;;;;;12.58;100.00;100582.31;5013988;28;20108;-84
2022/10/21 07:20:17;;;;;;;10.05;4.55;;;;;;;12.62;100.00;100580.25;5005662;28;20028;-84
2022/10/21 07:22:42;;;;;;;10.20;4.20;;;;;;;12.64;100.00;100573.03;5025312;28;20512;-83
2022/10/21 07:25:08;;;;;;;8.15;3.95;;;;;;;12.69;100.00;100576.09;5009474;28;20049;-84
2022/10/21 07:27:33;;;;;;;8.57;4.00;;;;;;;12.74;100.00;100579.16;5003169;28;20026;-84
2022/10/21 07:29:59;;;;;;;9.98;4.07;;;;;;;12.78;100.00;100581.41;5009345;28;20120;-85
2022/10/21 07:32:24;;;;;;;10.45;4.43;;;;;;;12.83;100.00;100578.41;5031526;28;20561;-86
2022/10/21 07:34:49;;;;;;;9.10;4.38;;;;;;;12.89;100.00;100579.66;5013128;28;20054;-85
2022/10/21 07:37:15;;;;;;;8.77;4.05;;;;;;;12.92;100.00;100589.94;4998833;28;20375;-85
2022/10/21 07:39:40;;;;;;;9.95;4.35;;;;;;;12.95;100.00;100589.66;5003496;28;20088;-85
2022/10/21 07:42:05;;;;;;;10.15;4.20;;;;;;;12.99;100.00;100594.53;5021235;28;20076;-85
2022/10/21 07:44:31;;;;;;;8.93;4.15;;;;;;;13.03;100.00;100592.47;5022075;28;20021;-85
2022/10/21 07:46:56;;;;;;;10.60;4.38;;;;;;;13.05;100.00;100598.44;5015378;28;20026;-85
2022/10/21 07:49:23;;;;;;;9.60;4.85;;;;;;;13.07;100.00;100601.78;5023933;28;20025;-85
2022/10/21 07:51:52;;;;;;;10.30;5.00;;;;;;;13.09;100.00;100600.69;5029041;28;20386;-85
2022/10/21 07:54:18;;;;;;;8.95;4.45;;;;;;;13.12;100.00;100600.41;5011114;28;20406;-85
2022/10/21 07:56:49;;;;;;;13.13;4.43;;;;;;;13.14;100.00;100613.47;5014801;28;20025;-85
2022/10/21 07:59:17;;;;;;;8.35;4.13;;;;;;;13.18;100.00;100610.47;5014742;28;20024;-85
2022/10/21 08:01:44;;;;;;;11.80;4.80;;;;;;;13.20;100.00;100612.13;5031332;28;20086;-85
2022/10/21 08:04:11;;;;;;;8.40;4.20;;;;;;;13.20;100.00;100617.41;5015374;28;20382;-85
2022/10/21 08:06:37;;;;;;;11.48;4.35;;;;;;;13.23;100.00;100611.88;5018782;28;20029;-86
2022/10/21 08:09:03;;;;;;;10.32;5.43;;;;;;;13.21;100.00;100600.59;5031160;28;20021;-85
2022/10/21 08:11:30;;;;;;;13.52;4.68;;;;;;;13.24;100.00;100598.53;5025082;28;20037;-85
2022/10/21 08:13:56;;;;;;;10.82;4.32;;;;;;;13.26;100.00;100598.41;5030417;28;20029;-84
2022/10/21 08:16:23;;;;;;;12.45;5.00;;;;;;;13.24;100.00;100595.91;5031163;28;20056;-85
2022/10/21 08:18:48;;;;;;;11.30;4.78;;;;;;;13.24;100.00;100595.06;5020664;28;20115;-85
2022/10/21 08:21:13;;;;;;;9.93;4.70;;;;;;;13.24;100.00;100589.78;5010571;28;20069;-86
2022/10/21 08:23:39;;;;;;;7.65;4.72;;;;;;;13.23;100.00;100596.03;5021076;28;20017;-87
2022/10/21 08:26:09;;;;;;;11.90;4.90;;;;;;;13.23;100.00;100609.25;5031187;28;20025;-86
2022/10/21 08:28:35;;;;;;;15.68;5.40;;;;;;;13.23;100.00;100620.66;5017241;28;20048;-87
2022/10/21 08:31:06;;;;;;;10.57;5.22;;;;;;;13.24;100.00;100616.19;5011974;28;20474;-86
2022/10/21 08:33:32;;;;;;;12.32;4.70;;;;;;;13.24;100.00;100609.09;5012262;28;20030;-86
2022/10/21 08:35:57;;;;;;;7.72;4.97;;;;;;;13.24;100.00;100614.38;4993736;28;20112;-86
2022/10/21 08:38:22;;;;;;;10.73;4.95;;;;;;;13.26;100.00;100608.97;5011649;28;20025;-86
2022/10/21 08:40:48;;;;;;;8.70;5.15;;;;;;;13.26;100.00;100619.53;5022454;28;20052;-86
2022/10/21 08:43:23;;;;;;;14.25;5.18;;;;;;;13.29;100.00;100633.31;5028349;28;20124;-86
2022/10/21 08:45:52;;;;;;;13.32;5.22;;;;;;;13.29;100.00;100629.84;5031079;28;20036;-86
2022/10/21 08:48:24;;;;;;;11.90;5.55;;;;;;;13.30;100.00;100628.84;5026096;28;20025;-84
2022/10/21 08:50:53;;;;;;;8.88;4.88;;;;;;;13.32;100.00;100624.28;5025405;28;20057;-83
2022/10/21 08:53:33;;;;;;;16.80;5.75;;;;;;;13.32;100.00;100626.91;5020831;28;20033;-83
2022/10/21 08:56:05;;;;;;;13.18;5.25;;;;;;;13.35;100.00;100640.69;5015542;28;20390;-83
2022/10/21 08:58:31;;;;;;;11.15;5.88;;;;;;;13.37;100.00;100648.47;5010743;28;20490;-84
2022/10/21 09:01:16;;;;;;;11.27;5.28;;;;;;;13.40;100.00;100637.63;5020128;28;20032;-84
2022/10/21 09:03:57;;;;;;;11.82;5.65;;;;;;;13.42;100.00;100643.63;5039981;28;20018;-83
2022/10/21 09:06:51;;;;;;;9.85;5.60;;;;;;;13.43;100.00;100637.34;5022995;28;20038;-84
2022/10/21 09:09:35;;;;;;;9.70;5.80;;;;;;;13.46;100.00;100650.28;5022910;28;20031;-84
2022/10/21 09:12:12;;;;;;;12.88;6.50;;;;;;;13.48;100.00;100643.06;5024260;28;20511;-86
2022/10/21 09:14:43;;;;;;;13.70;5.32;;;;;;;13.49;100.00;100645.56;5028891;28;20028;-85
2022/10/21 09:17:24;;;;;;;11.95;4.00;;;;;;;13.54;100.00;100636.38;5046684;28;20033;-84
2022/10/21 09:20:15;;;;;;;9.90;4.00;;;;;;;13.57;100.00;100618.44;5037742;28;20056;-85
2022/10/21 09:22:54;;;;;;;13.43;3.25;;;;;;;13.61;100.00;100627.78;5027409;28;20040;-86
2022/10/21 09:25:34;;;;;;;9.98;2.85;;;;;;;13.73;100.00;100633.78;5026432;28;20029;-88
2022/10/21 09:28:08;;;;;;;7.30;2.50;;;;;;;13.84;100.00;100628.34;5026454;28;20021;-88
2022/10/21 09:30:33;;;;;;;6.13;2.40;;;;;;;13.97;100.00;100633.34;5040465;28;20029;-86
2022/10/21 09:32:59;;;;;;;8.20;2.47;;;;;;;14.12;100.00;100629.31;5034208;28;20041;-86
2022/10/21 09:36:01;;;;;;;5.28;2.08;;;;;;;14.26;100.00;100628.00;5006900;28;20470;-86
2022/10/21 09:38:46;;;;;;;8.85;2.38;;;;;;;14.36;100.00;100619.06;5013670;28;20434;-86
2022/10/21 09:41:21;;;;;;;4.20;2.20;;;;;;;14.47;100.00;100614.63;5034086;28;20025;-87
2022/10/21 09:43:47;;;;;;;6.60;2.30;;;;;;;14.53;100.00;100609.59;5033373;28;20025;-87
2022/10/21 09:46:14;;;;;;;4.28;2.50;;;;;;;14.60;100.00;100613.31;5027530;28;20075;-86
2022/10/21 09:48:45;;;;;;;5.65;2.30;;;;;;;14.70;100.00;100621.22;5016433;28;20105;-86
2022/10/21 09:51:17;;;;;;;9.07;2.92;;;;;;;14.69;100.00;100619.56;5033830;28;20078;-86
2022/10/21 09:53:54;;;;;;;7.45;2.88;;;;;;;14.80;100.00;100623.81;5035368;28;20433;-85
2022/10/21 09:56:24;;;;;;;6.80;2.95;;;;;;;14.80;100.00;100626.47;5032082;28;20033;-86
2022/10/21 09:59:02;;;;;;;7.63;3.47;;;;;;;14.91;100.00;100629.78;5014151;28;20064;-90
2022/10/21 10:01:28;;;;;;;6.13;3.30;;;;;;;14.95;100.00;100625.84;5006084;28;20108;-92
2022/10/21 10:03:54;;;;;;;9.55;4.00;;;;;;;14.98;100.00;100625.56;5024272;28;20393;-91
2022/10/21 10:06:37;;;;;;;6.22;3.58;;;;;;;15.07;100.00;100628.31;5013247;28;20402;-91
2022/10/21 10:09:26;;;;;;;8.27;4.15;;;;;;;15.12;100.00;100628.69;5012526;28;20049;-90
2022/10/21 10:12:02;;;;;;;9.75;4.30;;;;;;;15.14;100.00;100624.06;5013055;28;20121;-90
2022/10/21 10:14:45;;;;;;;8.13;4.57;;;;;;;15.20;100.00;100628.78;5013379;28;20061;-90
2022/10/21 10:17:22;;;;;;;10.80;5.07;;;;;;;15.30;100.00;100634.88;5023327;28;20502;-92
2022/10/21 10:20:02;;;;;;;9.85;4.43;;;;;;;15.32;100.00;100632.91;5013670;28;20079;-91
2022/10/21 10:22:42;;;;;;;11.90;5.10;;;;;;;15.41;100.00;100639.97;4999748;28;20038;-84
2022/10/21 10:25:13;;;;;;;9.45;5.32;;;;;;;15.53;100.00;100646.72;5018801;28;20030;-91
2022/10/21 10:27:46;;;;;;;13.88;5.18;;;;;;;15.59;100.00;100640.00;5021602;28;20061;-90
2022/10/21 10:30:15;;;;;;;10.82;5.70;;;;;;;15.71;100.00;100644.13;5024576;28;20052;-91
2022/10/21 10:32:42;;;;;;;11.38;5.38;;;;;;;15.85;100.00;100634.78;5016769;28;20116;-90
2022/10/21 10:35:43;;;;;;;11.50;5.38;;;;;;;15.91;100.00;100636.81;5032969;28;20025;-90
2022/10/21 10:38:19;;;;;;;14.43;5.72;;;;;;;15.96;100.00;100642.50;5014499;28;20038;-91
2022/10/21 10:40:47;;;;;;;13.93;7.07;;;;;;;16.01;100.00;100636.72;5012654;28;20025;-93
2022/10/21 10:43:21;;;;;;;11.63;6.30;;;;;;;16.05;100.00;100638.94;5012467;28;20034;-91
2022/10/21 10:46:09;;;;;;;13.00;6.85;;;;;;;16.20;100.00;100637.38;5013505;28;20026;-91
2022/10/21 10:48:43;;;;;;;12.82;6.25;;;;;;;16.30;100.00;100640.78;5003181;28;20041;-90
2022/10/21 10:51:22;;;;;;;15.10;5.65;;;;;;;16.35;100.00;100642.13;5032784;28;20025;-91
2022/10/21 10:54:00;;;;;;;14.65;5.90;;;;;;;16.45;100.00;100645.53;5014891;28;20493;-90
2022/10/21 10:56:48;;;;;;;12.18;5.78;;;;;;;16.55;100.00;100643.59;5019654;28;20154;-89
2022/10/21 10:59:38;;;;;;;10.18;5.60;;;;;;;16.66;100.00;100651.31;4978167;28;20060;-90
2022/10/21 11:02:07;;;;;;;9.27;5.25;;;;;;;16.69;100.00;100632.41;5012550;28;20128;-89
2022/10/21 11:04:37;;;;;;;9.70;5.55;;;;;;;16.75;100.00;100629.13;5011422;28;20024;-89
2022/10/21 11:07:14;;;;;;;13.07;5.75;;;;;;;16.78;100.00;100626.13;5014731;28;20025;-89
2022/10/21 11:09:40;;;;;;;8.23;4.97;;;;;;;16.82;100.00;100618.72;5032129;28;20079;-90
2022/10/21 11:12:15;;;;;;;13.00;5.75;;;;;;;16.94;100.00;100616.59;5030843;28;20018;-89
2022/10/21 11:14:43;;;;;;;12.73;6.00;;;;;;;17.02;100.00;100609.47;5031305;28;20033;-88
2022/10/21 11:17:15;;;;;;;11.77;5.80;;;;;;;17.05;100.00;100610.97;5013796;28;20029;-89
2022/10/21 11:20:27;;;;;;;8.77;5.97;;;;;;;17.09;100.00;100610.50;5015136;28;20091;-90